Time;durP1;ratioP1;P1;durP2;ratioP2;P2;SDS_P1;SDS_P2;PMS_P1;PMS_P2;Temp;Humidity;BMP_temperature;BMP_pressure;BME280_temperature;BME280_humidity;BME280_pressure;Samples;Min_cycle;Max_cycle;Signal;HPM_P1;HPM_P2
2020/12/12 00:00:21;;;;;;;10.15;6.38;;;14.50;56.60;;;;;;5025397;28;20070;-70
2020/12/12 00:02:48;;;;;;;9.85;6.10;;;14.40;56.70;;;;;;5023076;28;20121;-70
2020/12/12 00:05:13;;;;;;;8.88;5.70;;;14.40;56.70;;;;;;5019221;28;20034;-70
2020/12/12 00:07:39;;;;;;;8.98;5.90;;;14.40;56.70;;;;;;5023488;28;20032;-70
2020/12/12 00:10:04;;;;;;;10.48;6.07;;;14.40;56.80;;;;;;5024556;28;20082;-69
2020/12/12 00:12:30;;;;;;;9.85;6.40;;;14.40;56.70;;;;;;5024306;28;20112;-70
2020/12/12 00:14:56;;;;;;;11.65;6.35;;;14.40;56.80;;;;;;5022173;28;20049;-69
2020/12/12 00:17:21;;;;;;;10.55;6.25;;;14.50;56.80;;;;;;5021712;28;20101;-69
2020/12/12 00:19:47;;;;;;;9.63;6.47;;;14.40;56.80;;;;;;5023554;28;20045;-70
2020/12/12 00:22:13;;;;;;;9.63;6.05;;;14.50;56.90;;;;;;5022457;28;20022;-70
2020/12/12 00:24:38;;;;;;;8.75;5.70;;;14.40;56.70;;;;;;5021234;28;20026;-69
2020/12/12 00:27:04;;;;;;;9.80;5.43;;;14.70;57.00;;;;;;5023247;28;20022;-70
2020/12/12 00:29:29;;;;;;;9.55;5.82;;;14.40;56.80;;;;;;5022689;28;20036;-70
2020/12/12 00:31:57;;;;;;;10.65;5.90;;;14.40;56.90;;;;;;5022566;28;20040;-70
2020/12/12 00:34:26;;;;;;;9.30;6.07;;;14.40;56.90;;;;;;5024719;28;20090;-70
2020/12/12 00:36:53;;;;;;;9.93;5.93;;;14.40;56.80;;;;;;5041003;28;20036;-70
2020/12/12 00:39:19;;;;;;;11.75;7.25;;;14.40;56.90;;;;;;5041940;28;20418;-70
2020/12/12 00:41:45;;;;;;;9.02;5.78;;;15.40;57.40;;;;;;5028952;28;20030;-70
2020/12/12 00:44:11;;;;;;;9.45;6.28;;;14.40;56.90;;;;;;5022543;28;20026;-70
2020/12/12 00:46:37;;;;;;;10.45;6.68;;;14.30;56.80;;;;;;5022822;28;20082;-70
2020/12/12 00:49:04;;;;;;;12.38;7.20;;;14.30;56.90;;;;;;5025099;28;20629;-71
2020/12/12 00:51:30;;;;;;;9.95;6.18;;;14.30;56.90;;;;;;5023106;28;20037;-70
2020/12/12 00:53:55;;;;;;;9.07;5.97;;;14.40;57.00;;;;;;5021017;28;20021;-72
2020/12/12 00:56:21;;;;;;;9.63;6.40;;;14.30;57.00;;;;;;5022705;28;20056;-70
2020/12/12 00:58:47;;;;;;;10.25;6.20;;;14.40;56.90;;;;;;5021328;28;20037;-71
2020/12/12 01:01:14;;;;;;;9.88;6.05;;;14.30;56.90;;;;;;5022415;28;20510;-70
2020/12/12 01:03:41;;;;;;;9.80;5.95;;;14.20;56.90;;;;;;5022690;28;20024;-70
2020/12/12 01:09:28;;;;;;;10.90;6.05;;;14.30;56.50;;;;;;5022268;28;20193;-70
2020/12/12 01:11:55;;;;;;;9.02;5.35;;;14.30;56.90;;;;;;5022269;28;20325;-70
2020/12/12 01:14:21;;;;;;;10.90;6.88;;;14.30;56.90;;;;;;5025117;28;20030;-71
2020/12/12 01:16:46;;;;;;;8.68;5.63;;;14.30;56.90;;;;;;5018988;28;20441;-70
2020/12/12 01:19:12;;;;;;;10.85;6.43;;;14.30;56.90;;;;;;5022818;28;20097;-70
2020/12/12 01:21:38;;;;;;;11.23;5.45;;;14.30;56.90;;;;;;5024446;28;20077;-70
2020/12/12 01:24:05;;;;;;;8.98;5.97;;;14.30;57.00;;;;;;5022267;28;20033;-70
2020/12/12 01:26:31;;;;;;;10.15;5.88;;;14.30;56.90;;;;;;5020852;28;20090;-70
2020/12/12 01:28:56;;;;;;;10.52;6.45;;;14.30;56.90;;;;;;5022944;28;20418;-70
2020/12/12 01:31:22;;;;;;;11.55;6.28;;;14.30;57.00;;;;;;5022354;28;20061;-70
2020/12/12 01:33:47;;;;;;;12.23;6.40;;;14.30;57.00;;;;;;5022813;28;20026;-70
2020/12/12 01:36:13;;;;;;;9.32;5.35;;;14.30;57.20;;;;;;5021771;28;20037;-70
2020/12/12 01:38:38;;;;;;;9.38;5.95;;;14.30;57.10;;;;;;5022635;28;20075;-69
2020/12/12 01:41:06;;;;;;;14.10;5.43;;;14.30;57.10;;;;;;5022170;28;20026;-69
2020/12/12 01:43:31;;;;;;;9.75;5.90;;;14.30;57.20;;;;;;5022754;28;20022;-70
2020/12/12 01:45:57;;;;;;;9.85;6.15;;;14.00;57.00;;;;;;5021002;28;20547;-70
2020/12/12 01:48:23;;;;;;;11.07;6.10;;;14.20;57.10;;;;;;5021112;28;20026;-70
2020/12/12 01:50:49;;;;;;;9.05;5.82;;;14.20;57.10;;;;;;5025125;28;20090;-70
2020/12/12 01:53:18;;;;;;;8.90;5.65;;;14.30;57.20;;;;;;5042521;28;20390;-70
2020/12/12 01:55:48;;;;;;;9.30;5.75;;;14.20;57.10;;;;;;5028904;28;20023;-70
2020/12/12 01:58:15;;;;;;;10.45;5.95;;;14.20;57.10;;;;;;5020457;28;20033;-70
2020/12/12 02:00:42;;;;;;;8.15;4.97;;;14.20;57.20;;;;;;5020379;28;20026;-70
2020/12/12 02:03:09;;;;;;;9.50;6.10;;;14.30;57.20;;;;;;5021151;28;20132;-70
2020/12/12 02:05:39;;;;;;;8.23;4.82;;;14.20;57.20;;;;;;5020159;28;20028;-70
2020/12/12 02:08:23;;;;;;;10.30;5.93;;;14.20;57.20;;;;;;5021488;28;20030;-70
2020/12/12 02:10:49;;;;;;;8.77;4.75;;;14.20;56.70;;;;;;5021173;28;20018;-70
2020/12/12 02:13:17;;;;;;;9.00;5.28;;;14.20;57.00;;;;;;5025370;28;20044;-70
2020/12/12 02:15:44;;;;;;;9.15;5.68;;;14.20;57.20;;;;;;5020350;28;20049;-70
2020/12/12 02:18:21;;;;;;;8.40;5.25;;;14.20;57.10;;;;;;5019765;28;20038;-70
2020/12/12 02:21:01;;;;;;;10.63;6.07;;;14.30;57.10;;;;;;5008893;28;20034;-70
2020/12/12 02:23:27;;;;;;;9.45;6.20;;;14.20;57.10;;;;;;5018827;28;20029;-70
2020/12/12 02:25:55;;;;;;;9.73;5.43;;;14.20;57.30;;;;;;5021669;28;20088;-71
2020/12/12 02:28:46;;;;;;;9.80;5.88;;;14.10;57.30;;;;;;5020093;28;20029;-70
2020/12/12 02:31:09;;;;;;;9.73;5.45;;;14.30;57.30;;;;;;5021725;28;20057;-69
2020/12/12 02:33:34;;;;;;;8.43;5.47;;;14.30;57.20;;;;;;5021276;28;20022;-70
2020/12/12 02:36:00;;;;;;;9.32;5.30;;;14.30;57.10;;;;;;5021442;28;20026;-71
2020/12/12 02:38:25;;;;;;;8.23;4.50;;;14.30;57.20;;;;;;5020745;28;20030;-70
2020/12/12 02:40:51;;;;;;;7.68;4.95;;;14.90;57.40;;;;;;5022030;28;20018;-70
2020/12/12 02:43:17;;;;;;;9.25;5.07;;;14.30;57.20;;;;;;5021040;28;20055;-70
2020/12/12 02:45:47;;;;;;;9.50;6.10;;;14.10;57.00;;;;;;5020083;28;20030;-71
2020/12/12 02:48:13;;;;;;;8.60;5.20;;;14.30;57.20;;;;;;5023369;28;20038;-70
2020/12/12 02:50:39;;;;;;;9.85;5.53;;;14.20;57.00;;;;;;5023479;28;20041;-70
2020/12/12 02:53:04;;;;;;;8.25;5.00;;;15.80;58.00;;;;;;5024813;28;20018;-70
2020/12/12 02:55:30;;;;;;;8.32;5.30;;;14.30;57.30;;;;;;5024190;28;20037;-71
2020/12/12 02:57:56;;;;;;;9.23;4.78;;;14.30;57.30;;;;;;5023418;28;20076;-68
2020/12/12 03:00:24;;;;;;;7.68;4.68;;;14.30;57.20;;;;;;5024910;28;20053;-70
2020/12/12 03:02:50;;;;;;;7.72;4.68;;;14.30;57.20;;;;;;5024762;28;20018;-70
2020/12/12 03:05:16;;;;;;;8.98;5.35;;;14.30;57.20;;;;;;5024039;28;20018;-70
2020/12/12 03:07:42;;;;;;;8.82;5.10;;;14.20;57.10;;;;;;5031778;28;20026;-70
2020/12/12 03:10:08;;;;;;;8.18;4.75;;;14.30;57.20;;;;;;5022004;28;20028;-70
2020/12/12 03:12:34;;;;;;;9.57;5.47;;;14.30;57.20;;;;;;5023905;28;20089;-69
2020/12/12 03:15:00;;;;;;;7.88;5.00;;;14.30;57.20;;;;;;5024750;28;20053;-70
2020/12/12 03:17:26;;;;;;;9.40;4.72;;;14.30;57.10;;;;;;5024036;28;20025;-70
2020/12/12 03:19:52;;;;;;;8.35;5.35;;;14.30;57.10;;;;;;5023950;28;20360;-70
2020/12/12 03:22:18;;;;;;;10.48;5.50;;;14.20;57.00;;;;;;5024040;28;20026;-70
2020/12/12 03:24:44;;;;;;;8.20;4.97;;;14.20;57.00;;;;;;5023479;28;20086;-69
2020/12/12 03:27:10;;;;;;;9.18;5.70;;;14.20;57.00;;;;;;5024782;28;20045;-70
2020/12/12 03:29:38;;;;;;;7.97;4.55;;;14.20;57.10;;;;;;5022760;28;20080;-70
2020/12/12 03:32:08;;;;;;;8.65;5.35;;;14.30;57.20;;;;;;5022609;28;20426;-69
2020/12/12 03:34:35;;;;;;;8.85;5.00;;;14.20;57.10;;;;;;5023207;28;20029;-70
2020/12/12 03:37:01;;;;;;;8.80;4.85;;;14.20;57.20;;;;;;5024360;28;20219;-70
2020/12/12 03:39:27;;;;;;;8.75;5.40;;;14.20;57.20;;;;;;5024150;28;20030;-70
2020/12/12 03:41:53;;;;;;;8.95;5.53;;;14.20;57.20;;;;;;5023176;28;20040;-70
2020/12/12 03:44:18;;;;;;;8.60;5.15;;;14.20;57.30;;;;;;5024714;28;20068;-70
2020/12/12 03:46:44;;;;;;;8.98;5.10;;;14.20;57.30;;;;;;5023392;28;20144;-69
2020/12/12 03:49:09;;;;;;;8.55;4.82;;;14.20;57.20;;;;;;5022393;28;20049;-70
2020/12/12 03:51:35;;;;;;;7.63;4.50;;;14.10;57.30;;;;;;5021966;28;20014;-70
2020/12/12 03:54:00;;;;;;;7.97;4.82;;;14.20;57.30;;;;;;5043865;28;20018;-70
2020/12/12 03:56:26;;;;;;;8.00;4.72;;;14.10;57.60;;;;;;5034535;28;20033;-71
2020/12/12 03:58:51;;;;;;;9.48;5.65;;;14.20;57.40;;;;;;5041186;28;20033;-70
2020/12/12 04:01:17;;;;;;;8.38;5.22;;;14.20;57.30;;;;;;5022456;28;20045;-70
2020/12/12 04:03:42;;;;;;;10.43;5.15;;;14.20;57.30;;;;;;5021828;28;20105;-71
2020/12/12 04:06:08;;;;;;;10.27;5.75;;;14.20;57.30;;;;;;5024097;28;20129;-70
2020/12/12 04:08:33;;;;;;;7.47;4.90;;;14.20;57.30;;;;;;5021603;28;20551;-70
2020/12/12 04:11:02;;;;;;;11.10;5.30;;;14.20;57.20;;;;;;5022124;28;20037;-70
2020/12/12 04:13:29;;;;;;;9.35;5.38;;;14.20;57.30;;;;;;5021890;28;20022;-70
2020/12/12 04:15:55;;;;;;;9.90;5.47;;;14.20;57.40;;;;;;5022582;28;20093;-70
2020/12/12 04:18:21;;;;;;;7.63;4.43;;;14.20;57.40;;;;;;5022406;28;20056;-70
2020/12/12 04:20:47;;;;;;;9.50;5.57;;;14.20;57.30;;;;;;5023388;28;20017;-70
2020/12/12 04:23:13;;;;;;;7.60;4.90;;;14.20;57.40;;;;;;5024761;28;20053;-70
2020/12/12 04:25:38;;;;;;;9.32;5.50;;;14.20;57.30;;;;;;5024065;28;20499;-70
2020/12/12 04:28:04;;;;;;;7.50;4.55;;;14.20;57.30;;;;;;5023366;28;20109;-70
2020/12/12 04:30:30;;;;;;;7.95;5.13;;;14.20;57.30;;;;;;5021787;28;20018;-70
2020/12/12 04:32:55;;;;;;;9.35;5.00;;;14.20;57.40;;;;;;5022895;28;20033;-70
2020/12/12 04:35:21;;;;;;;9.77;5.90;;;14.20;57.30;;;;;;5022975;28;20018;-70
2020/12/12 04:37:47;;;;;;;8.68;4.97;;;14.20;57.30;;;;;;5023345;28;20444;-70
2020/12/12 04:40:14;;;;;;;8.25;5.15;;;14.20;57.30;;;;;;5021897;28;20387;-70
2020/12/12 04:42:42;;;;;;;9.23;5.20;;;14.20;57.40;;;;;;5021648;28;20022;-69
2020/12/12 04:45:11;;;;;;;8.40;5.53;;;14.20;57.30;;;;;;5022477;28;20417;-70
2020/12/12 04:47:41;;;;;;;8.50;4.65;;;14.20;57.30;;;;;;5023485;28;20030;-70
2020/12/12 04:50:07;;;;;;;8.63;5.03;;;14.20;57.40;;;;;;5027207;28;20026;-70
2020/12/12 04:52:34;;;;;;;7.55;4.72;;;14.10;57.30;;;;;;5023210;28;20032;-70
2020/12/12 04:55:05;;;;;;;7.70;4.50;;;14.20;57.40;;;;;;5021892;28;20029;-70
2020/12/12 04:57:35;;;;;;;9.70;5.45;;;14.10;57.40;;;;;;5022905;28;20018;-70
2020/12/12 05:00:09;;;;;;;7.72;4.65;;;14.20;57.40;;;;;;5020849;28;20022;-70
2020/12/12 05:02:35;;;;;;;8.23;5.10;;;14.20;57.40;;;;;;5020600;28;20111;-67
2020/12/12 05:05:01;;;;;;;9.18;5.43;;;14.20;57.40;;;;;;5022593;28;20018;-70
2020/12/12 05:07:26;;;;;;;9.73;5.28;;;14.10;57.40;;;;;;5022004;28;20065;-71
2020/12/12 05:09:51;;;;;;;8.45;5.35;;;14.20;57.50;;;;;;5020176;28;20049;-70
2020/12/12 05:12:18;;;;;;;8.80;5.22;;;14.10;57.40;;;;;;5021319;28;20018;-71
2020/12/12 05:14:50;;;;;;;8.93;5.25;;;14.10;57.40;;;;;;5021691;28;20529;-70
2020/12/12 05:17:18;;;;;;;9.70;5.03;;;14.10;57.50;;;;;;5023089;28;20037;-71
2020/12/12 05:19:47;;;;;;;11.13;7.43;;;14.10;57.50;;;;;;5015206;28;20054;-68
2020/12/12 05:22:13;;;;;;;10.35;5.88;;;14.10;57.80;;;;;;5007595;28;20021;-70
2020/12/12 05:24:39;;;;;;;9.25;4.90;;;14.20;57.70;;;;;;5010434;28;20095;-69
2020/12/12 05:27:05;;;;;;;11.82;5.53;;;14.20;57.30;;;;;;5012252;28;20618;-69
2020/12/12 05:29:30;;;;;;;9.55;4.63;;;14.30;57.30;;;;;;5012290;28;20029;-69
2020/12/12 05:31:57;;;;;;;9.30;4.70;;;14.40;57.40;;;;;;5010003;28;20018;-69
2020/12/12 05:34:24;;;;;;;7.93;4.53;;;14.20;57.80;;;;;;5018923;28;20196;-69
2020/12/12 05:36:51;;;;;;;8.07;4.43;;;14.30;57.30;;;;;;5010893;28;20026;-69
2020/12/12 05:39:17;;;;;;;8.38;4.38;;;14.30;57.20;;;;;;5011365;28;20087;-68
2020/12/12 05:41:44;;;;;;;7.93;4.40;;;14.30;57.20;;;;;;5008265;28;20044;-69
2020/12/12 05:44:11;;;;;;;6.97;4.03;;;14.30;57.20;;;;;;5012179;28;20068;-71
2020/12/12 05:46:38;;;;;;;8.85;4.30;;;14.40;57.50;;;;;;5010240;28;20025;-68
2020/12/12 05:49:05;;;;;;;9.50;4.97;;;14.40;57.20;;;;;;5010970;28;20112;-69
2020/12/12 05:51:31;;;;;;;8.02;5.03;;;14.40;57.30;;;;;;5011185;28;20026;-69
2020/12/12 05:53:58;;;;;;;13.73;5.07;;;14.40;57.30;;;;;;5010175;28;20030;-70
2020/12/12 05:56:25;;;;;;;11.30;4.95;;;14.40;57.30;;;;;;5012567;28;20560;-70
2020/12/12 05:58:52;;;;;;;11.57;5.05;;;14.50;57.40;;;;;;5013879;28;20396;-69
2020/12/12 06:01:23;;;;;;;8.18;4.47;;;14.60;58.10;;;;;;5026313;28;20103;-69
2020/12/12 06:03:56;;;;;;;9.15;4.78;;;14.50;57.50;;;;;;5031091;28;20064;-70
2020/12/12 06:06:24;;;;;;;15.65;8.00;;;14.60;57.80;;;;;;5030765;28;20030;-70
2020/12/12 06:09:01;;;;;;;21.42;7.55;;;14.60;57.90;;;;;;5031739;28;20101;-69
2020/12/12 06:11:29;;;;;;;13.13;7.47;;;14.60;58.00;;;;;;5010257;28;20038;-69
2020/12/12 06:13:59;;;;;;;20.20;6.53;;;14.60;58.10;;;;;;5012435;28;20030;-69
2020/12/12 06:16:29;;;;;;;18.90;6.07;;;14.70;58.30;;;;;;5010328;28;20022;-69
2020/12/12 06:19:13;;;;;;;13.10;5.50;;;14.70;58.60;;;;;;5011807;28;20045;-69
2020/12/12 06:21:44;;;;;;;13.88;5.93;;;14.80;58.70;;;;;;5013427;28;20041;-70
2020/12/12 06:24:12;;;;;;;18.07;5.40;;;14.80;58.70;;;;;;5014737;28;20025;-70
2020/12/12 06:27:01;;;;;;;20.88;6.80;;;14.80;58.50;;;;;;5014029;28;20284;-69
2020/12/12 06:29:30;;;;;;;16.58;6.72;;;15.00;57.50;;;;;;5017656;28;20037;-70
2020/12/12 06:31:56;;;;;;;15.73;5.60;;;15.10;57.90;;;;;;5015528;28;20049;-69
2020/12/12 06:34:41;;;;;;;15.73;5.88;;;15.20;57.90;;;;;;5014307;28;20042;-72
2020/12/12 06:37:14;;;;;;;14.80;6.32;;;15.20;57.30;;;;;;5017399;28;20057;-70
2020/12/12 06:39:44;;;;;;;13.57;5.63;;;15.30;57.50;;;;;;5015740;28;20026;-69
2020/12/12 06:42:39;;;;;;;19.70;6.57;;;15.30;57.50;;;;;;5019793;28;20078;-70
2020/12/12 06:45:17;;;;;;;12.43;5.55;;;15.30;57.30;;;;;;5034860;28;20037;-69
2020/12/12 06:47:45;;;;;;;11.80;6.00;;;15.30;57.40;;;;;;5033646;28;20036;-70
2020/12/12 06:50:15;;;;;;;16.77;6.03;;;15.30;57.60;;;;;;5033734;28;20548;-67
2020/12/12 06:52:41;;;;;;;14.18;5.43;;;15.30;57.70;;;;;;5033384;28;20434;-67
2020/12/12 06:55:09;;;;;;;14.18;5.65;;;15.30;57.70;;;;;;5035622;28;20081;-69
2020/12/12 06:57:38;;;;;;;12.57;5.63;;;15.30;57.70;;;;;;5035049;28;20406;-68
2020/12/12 07:00:16;;;;;;;13.45;6.30;;;15.30;57.80;;;;;;5034135;28;20149;-69
2020/12/12 07:02:55;;;;;;;11.10;5.32;;;15.20;57.80;;;;;;5032568;28;20025;-70
2020/12/12 07:05:23;;;;;;;11.70;5.70;;;15.20;57.60;;;;;;5033285;28;20474;-70
2020/12/12 07:07:49;;;;;;;11.90;6.32;;;15.30;58.00;;;;;;5031847;28;20079;-69
2020/12/12 07:10:15;;;;;;;10.75;5.60;;;15.20;57.90;;;;;;5030575;28;20034;-69
2020/12/12 07:12:40;;;;;;;12.85;5.18;;;15.20;58.00;;;;;;5029954;28;20163;-68
2020/12/12 07:15:06;;;;;;;8.85;4.53;;;15.20;58.00;;;;;;5028383;28;20030;-69
2020/12/12 07:17:33;;;;;;;9.10;4.00;;;15.20;58.00;;;;;;5030754;28;20565;-69
2020/12/12 07:19:59;;;;;;;9.27;4.47;;;15.10;58.00;;;;;;5030867;28;20040;-69
2020/12/12 07:22:27;;;;;;;8.75;4.00;;;15.10;58.00;;;;;;5029172;28;20021;-69
2020/12/12 07:24:53;;;;;;;8.52;4.90;;;15.10;58.20;;;;;;5029343;28;20132;-69
2020/12/12 07:27:19;;;;;;;8.07;4.55;;;15.20;58.20;;;;;;5029378;28;20544;-69
2020/12/12 07:29:44;;;;;;;7.95;4.38;;;15.10;58.10;;;;;;5028833;28;20076;-68
2020/12/12 07:38:54;;;;;;;12.50;5.60;;;15.00;57.80;;;;;;5022985;28;20458;-69
2020/12/12 07:41:20;;;;;;;9.07;5.20;;;15.00;58.10;;;;;;5011711;28;20025;-69
2020/12/12 07:43:54;;;;;;;8.85;5.25;;;15.00;58.10;;;;;;5010588;28;20516;-69
2020/12/12 07:46:20;;;;;;;7.85;4.60;;;15.50;58.40;;;;;;5010437;28;20026;-68
2020/12/12 07:48:59;;;;;;;9.90;4.63;;;15.00;58.30;;;;;;5010199;28;20041;-69
2020/12/12 07:51:25;;;;;;;8.70;4.75;;;15.00;58.00;;;;;;5011523;28;20021;-69
2020/12/12 07:53:50;;;;;;;10.45;4.85;;;15.00;58.30;;;;;;5011523;28;20025;-69
2020/12/12 07:56:19;;;;;;;8.23;5.07;;;15.00;58.20;;;;;;5011054;28;20684;-70
2020/12/12 07:59:00;;;;;;;9.05;4.50;;;15.00;58.20;;;;;;5012816;28;20080;-69
2020/12/12 08:01:26;;;;;;;;;;;14.90;58.00;;;;;;5013632;28;20080;-69
2020/12/12 08:03:51;;;;;;;8.93;4.55;;;14.90;57.30;;;;;;5010709;28;19968;-69
2020/12/12 08:06:17;;;;;;;7.32;4.25;;;14.90;57.90;;;;;;5012495;28;20509;-69
2020/12/12 08:08:52;;;;;;;8.48;4.22;;;14.90;58.00;;;;;;5009525;28;20061;-69
2020/12/12 08:11:18;;;;;;;9.30;4.60;;;14.50;57.70;;;;;;5009458;28;20022;-69
2020/12/12 08:13:43;;;;;;;10.13;4.80;;;14.90;58.00;;;;;;5008883;28;20036;-70
2020/12/12 08:16:14;;;;;;;7.22;4.32;;;15.00;58.10;;;;;;5011096;28;20144;-67
2020/12/12 08:18:40;;;;;;;6.32;4.00;;;14.90;58.00;;;;;;5010510;28;20641;-69
2020/12/12 08:21:14;;;;;;;8.60;5.05;;;14.90;58.00;;;;;;5012126;28;20088;-69
2020/12/12 08:23:41;;;;;;;7.38;4.70;;;14.90;58.00;;;;;;5008902;28;20026;-68
2020/12/12 08:26:10;;;;;;;8.57;4.63;;;15.60;58.40;;;;;;5009887;28;20022;-69
2020/12/12 08:28:36;;;;;;;8.57;5.10;;;14.40;57.80;;;;;;5009139;28;20022;-69
2020/12/12 08:31:16;;;;;;;8.68;4.95;;;14.90;58.00;;;;;;5007611;28;20032;-68
2020/12/12 08:33:43;;;;;;;12.15;5.43;;;14.90;57.80;;;;;;5008509;28;20017;-69
2020/12/12 08:36:20;;;;;;;10.43;4.75;;;14.90;57.90;;;;;;5007168;28;20034;-69
2020/12/12 08:38:58;;;;;;;12.88;5.43;;;14.90;57.80;;;;;;5009438;28;20077;-69
2020/12/12 08:41:32;;;;;;;15.88;10.13;;;14.80;57.60;;;;;;5011255;28;20030;-65
2020/12/12 08:43:58;;;;;;;17.70;9.40;;;14.90;57.50;;;;;;5005028;28;20037;-64
2020/12/12 08:46:24;;;;;;;17.30;6.97;;;14.90;57.40;;;;;;5005171;28;20121;-65
2020/12/12 08:48:50;;;;;;;17.20;7.68;;;14.90;57.30;;;;;;5005103;28;20542;-64
2020/12/12 08:51:26;;;;;;;15.77;11.35;;;14.90;54.80;;;;;;5005039;28;20573;-66
2020/12/12 08:53:52;;;;;;;15.00;10.18;;;14.70;54.00;;;;;;5005051;28;20080;-66
2020/12/12 08:56:21;;;;;;;13.52;9.60;;;14.40;54.60;;;;;;5002467;28;20034;-64
2020/12/12 08:58:57;;;;;;;14.13;8.73;;;14.30;55.00;;;;;;5005284;28;20101;-63
2020/12/12 09:01:42;;;;;;;17.13;8.98;;;14.20;56.70;;;;;;5005392;28;20029;-64
2020/12/12 09:04:08;;;;;;;15.23;9.10;;;14.30;57.00;;;;;;5005138;28;20030;-62
2020/12/12 09:06:40;;;;;;;16.83;9.35;;;14.40;57.50;;;;;;5005336;28;20026;-65
2020/12/12 09:09:21;;;;;;;13.05;8.50;;;14.60;57.00;;;;;;5004724;28;20034;-62
2020/12/12 09:11:53;;;;;;;13.88;9.13;;;14.60;57.50;;;;;;5003658;28;20017;-64
2020/12/12 09:14:18;;;;;;;13.05;8.80;;;14.70;56.90;;;;;;5003654;28;20029;-62
2020/12/12 09:16:48;;;;;;;13.52;7.97;;;14.80;56.90;;;;;;5004094;28;20026;-66
2020/12/12 09:19:14;;;;;;;13.20;7.25;;;14.80;56.80;;;;;;5005059;28;20025;-64
2020/12/12 09:21:39;;;;;;;11.68;7.63;;;14.80;56.70;;;;;;5003489;28;20048;-64
2020/12/12 09:24:05;;;;;;;10.88;7.05;;;14.90;56.70;;;;;;5003739;28;20399;-65
2020/12/12 09:26:31;;;;;;;12.18;7.13;;;14.90;56.60;;;;;;5003678;28;20051;-64
2020/12/12 09:28:56;;;;;;;11.70;7.13;;;14.90;56.60;;;;;;5005018;28;20041;-66
2020/12/12 09:31:23;;;;;;;13.68;6.97;;;14.90;56.60;;;;;;5004950;28;20033;-62
2020/12/12 09:33:49;;;;;;;13.32;7.40;;;15.00;56.60;;;;;;5004811;28;20022;-64
2020/12/12 09:36:15;;;;;;;19.35;7.45;;;15.00;56.60;;;;;;4999972;28;20037;-64
2020/12/12 09:38:41;;;;;;;18.75;7.43;;;15.00;56.80;;;;;;5002614;28;20403;-63
2020/12/12 09:41:06;;;;;;;18.58;7.10;;;15.10;57.00;;;;;;5004438;28;20045;-64
2020/12/12 09:43:32;;;;;;;16.92;7.30;;;15.10;57.00;;;;;;5002802;28;20029;-63
2020/12/12 09:45:58;;;;;;;16.15;7.25;;;15.10;57.00;;;;;;5004453;28;20026;-68
2020/12/12 09:48:23;;;;;;;12.55;5.95;;;15.10;57.00;;;;;;5003871;28;20034;-66
2020/12/12 09:50:49;;;;;;;14.88;6.28;;;15.20;57.20;;;;;;5004599;28;20030;-65
2020/12/12 09:53:15;;;;;;;14.23;6.10;;;15.20;57.20;;;;;;5004282;28;20129;-64
2020/12/12 09:55:41;;;;;;;20.38;6.95;;;15.10;57.20;;;;;;5003866;28;20034;-63
2020/12/12 09:58:07;;;;;;;19.73;7.30;;;15.20;57.40;;;;;;5004376;28;20030;-63
2020/12/12 10:00:38;;;;;;;15.60;6.43;;;15.20;57.60;;;;;;5004358;28;20061;-64
2020/12/12 10:03:05;;;;;;;13.27;6.55;;;15.20;57.60;;;;;;5003018;28;20033;-62
2020/12/12 10:05:32;;;;;;;11.43;6.22;;;15.20;57.90;;;;;;5002315;28;20030;-65
2020/12/12 10:07:58;;;;;;;13.85;6.18;;;15.20;57.70;;;;;;5003363;28;20099;-65
2020/12/12 10:10:25;;;;;;;15.70;6.53;;;15.20;57.70;;;;;;5004351;28;20181;-62
2020/12/12 10:12:51;;;;;;;11.70;5.72;;;15.20;57.80;;;;;;5003530;28;20025;-63
2020/12/12 10:15:18;;;;;;;11.07;5.53;;;15.20;57.70;;;;;;5002855;28;20403;-64
2020/12/12 10:17:45;;;;;;;12.30;6.18;;;15.20;57.60;;;;;;5004075;28;20030;-64
2020/12/12 10:20:11;;;;;;;19.80;9.80;;;15.30;57.90;;;;;;5002890;28;20783;-64
2020/12/12 10:22:37;;;;;;;23.02;12.07;;;15.30;57.80;;;;;;5003686;28;20022;-64
2020/12/12 10:25:03;;;;;;;17.15;10.52;;;15.10;57.40;;;;;;5003734;28;20374;-64
2020/12/12 10:27:29;;;;;;;18.10;10.73;;;15.20;57.60;;;;;;5003830;28;20476;-65
2020/12/12 10:29:55;;;;;;;18.42;11.05;;;15.20;57.60;;;;;;5002546;28;20048;-64
2020/12/12 10:32:20;;;;;;;17.88;9.25;;;15.30;57.70;;;;;;5002715;28;20037;-64
2020/12/12 10:34:45;;;;;;;18.17;9.18;;;15.30;57.60;;;;;;5003939;28;20034;-63
2020/12/12 10:37:11;;;;;;;16.35;8.93;;;15.30;57.30;;;;;;5002282;28;20041;-66
2020/12/12 10:39:43;;;;;;;16.83;8.98;;;15.30;57.50;;;;;;5004359;28;20060;-64
2020/12/12 10:42:09;;;;;;;15.38;10.20;;;15.30;57.50;;;;;;5004100;28;20041;-65
2020/12/12 10:44:34;;;;;;;16.05;9.82;;;15.30;57.50;;;;;;5003584;28;20037;-66
2020/12/12 10:47:00;;;;;;;12.15;7.40;;;15.40;57.70;;;;;;5003733;28;20041;-65
2020/12/12 10:49:25;;;;;;;13.85;8.10;;;15.40;57.50;;;;;;5003655;28;20112;-65
2020/12/12 10:51:54;;;;;;;13.43;7.68;;;15.50;57.50;;;;;;5003522;28;20037;-65
2020/12/12 10:54:20;;;;;;;14.75;7.18;;;15.50;57.50;;;;;;5003551;28;20513;-64
2020/12/12 10:56:46;;;;;;;12.05;7.07;;;15.50;57.40;;;;;;5003963;28;20060;-65
2020/12/12 10:59:13;;;;;;;13.15;7.53;;;15.60;57.50;;;;;;5003619;28;20053;-64
2020/12/12 11:01:39;;;;;;;12.13;6.63;;;15.60;57.40;;;;;;5003683;28;20399;-64
2020/12/12 11:04:05;;;;;;;12.60;6.20;;;15.60;57.50;;;;;;5003193;28;20637;-65
2020/12/12 11:06:32;;;;;;;11.57;6.35;;;15.70;57.60;;;;;;5003650;28;20109;-65
2020/12/12 11:08:58;;;;;;;11.75;6.38;;;15.70;57.60;;;;;;5005327;28;20053;-65
2020/12/12 11:11:24;;;;;;;14.18;6.18;;;15.60;57.60;;;;;;5005907;28;20030;-64
2020/12/12 11:13:49;;;;;;;16.40;6.20;;;15.70;57.80;;;;;;5006769;28;20026;-62
2020/12/12 11:19:37;;;;;;;11.07;6.38;;;15.70;57.90;;;;;;5005063;28;20033;-65
2020/12/12 11:22:02;;;;;;;11.80;6.10;;;15.70;58.10;;;;;;5006979;28;20033;-65
2020/12/12 11:24:28;;;;;;;16.20;6.22;;;15.70;58.10;;;;;;5007018;28;20149;-64
2020/12/12 11:26:54;;;;;;;9.50;5.70;;;15.70;58.10;;;;;;5006826;28;20034;-65
2020/12/12 11:29:20;;;;;;;12.55;5.93;;;15.70;58.20;;;;;;5007081;28;20041;-64
2020/12/12 11:31:50;;;;;;;10.18;5.63;;;15.70;58.20;;;;;;5006930;28;20034;-65
2020/12/12 11:34:24;;;;;;;10.75;5.80;;;15.80;58.20;;;;;;5006846;28;20026;-64
2020/12/12 11:47:03;;;;;;;11.30;6.35;;;15.80;58.10;;;;;;5006394;28;20045;-65
2020/12/12 11:49:29;;;;;;;10.95;6.13;;;15.80;58.20;;;;;;5004775;28;20037;-65
2020/12/12 11:51:54;;;;;;;11.52;6.47;;;15.80;58.20;;;;;;5004798;28;20022;-65
2020/12/12 11:54:20;;;;;;;11.77;6.35;;;15.80;57.90;;;;;;5006403;28;20403;-63
2020/12/12 11:56:45;;;;;;;15.10;6.57;;;15.80;58.30;;;;;;5008869;28;20030;-65
2020/12/12 11:59:13;;;;;;;22.42;6.68;;;15.90;58.30;;;;;;5015297;28;20495;-65
2020/12/12 12:01:39;;;;;;;16.88;6.47;;;15.90;57.80;;;;;;5015937;28;20033;-68
2020/12/12 12:04:05;;;;;;;33.13;7.07;;;15.90;58.10;;;;;;5015220;28;20492;-65
2020/12/12 12:06:31;;;;;;;26.63;6.65;;;16.00;58.50;;;;;;5019176;28;20033;-66
2020/12/12 12:13:59;;;;;;;26.42;5.80;;;16.10;58.00;;;;;;5008921;28;20040;-67
2020/12/12 12:16:25;;;;;;;28.17;5.97;;;16.10;58.10;;;;;;5008821;28;20037;-66
2020/12/12 12:18:51;;;;;;;21.30;5.82;;;16.10;57.80;;;;;;5011444;28;20030;-66
2020/12/12 12:21:17;;;;;;;28.52;5.63;;;16.20;57.90;;;;;;5011766;28;20399;-66
2020/12/12 12:23:43;;;;;;;21.23;5.43;;;16.10;57.70;;;;;;5010524;28;20049;-67
2020/12/12 12:26:09;;;;;;;14.55;5.00;;;16.20;57.60;;;;;;5010305;28;20084;-67
2020/12/12 12:28:35;;;;;;;17.92;5.72;;;16.20;57.60;;;;;;5011362;28;20045;-66
2020/12/12 12:31:01;;;;;;;16.17;5.57;;;16.10;57.80;;;;;;5010146;28;20068;-67
2020/12/12 12:33:27;;;;;;;16.30;5.40;;;16.10;57.80;;;;;;5011063;28;20117;-68
2020/12/12 12:35:54;;;;;;;14.98;5.20;;;16.10;57.60;;;;;;5010111;28;20101;-66
2020/12/12 12:38:19;;;;;;;14.68;5.88;;;16.10;57.50;;;;;;5011217;28;20029;-66
2020/12/12 12:40:45;;;;;;;18.08;5.63;;;16.10;57.40;;;;;;5010223;28;20026;-66
2020/12/12 12:43:11;;;;;;;38.65;6.70;;;16.10;57.00;;;;;;5024001;28;20037;-61
2020/12/12 12:45:37;;;;;;;46.78;7.32;;;16.10;57.30;;;;;;5031240;28;20148;-66
2020/12/12 12:48:02;;;;;;;32.65;7.15;;;16.10;57.70;;;;;;5029190;28;20394;-66
2020/12/12 12:50:34;;;;;;;37.70;7.70;;;16.20;58.10;;;;;;5008170;28;20556;-65
2020/12/12 12:53:01;;;;;;;34.95;6.63;;;16.20;57.80;;;;;;5005736;28;20022;-66
2020/12/12 12:55:27;;;;;;;32.95;6.68;;;16.10;57.70;;;;;;5011050;28;20112;-67
2020/12/12 12:57:53;;;;;;;32.20;7.22;;;16.10;57.60;;;;;;5014232;28;20112;-65
2020/12/12 13:00:19;;;;;;;33.40;7.75;;;16.10;57.60;;;;;;5023085;28;20030;-67
2020/12/12 13:02:45;;;;;;;49.35;7.50;;;16.10;57.70;;;;;;5013396;28;20414;-66
2020/12/12 13:05:10;;;;;;;43.05;7.82;;;16.10;57.60;;;;;;5023699;28;20025;-67
2020/12/12 13:07:36;;;;;;;63.10;9.10;;;16.10;57.60;;;;;;5014618;28;20056;-65
2020/12/12 13:10:02;;;;;;;50.60;8.40;;;16.10;58.10;;;;;;5026292;28;20060;-66